Time;durP1;ratioP1;P1;durP2;ratioP2;P2;SDS_P1;SDS_P2;PMS_P1;PMS_P2;Temp;Humidity;BMP_temperature;BMP_pressure;BME280_temperature;BME280_humidity;BME280_pressure;Samples;Min_cycle;Max_cycle;Signal;HPM_P1;HPM_P2
2023/08/13 00:01:43;;;;;;;11.43;3.58;;;18.00;79.70;;;;;;4973720;28;20043;-76
2023/08/13 00:04:09;;;;;;;12.00;3.92;;;18.00;79.70;;;;;;4969334;28;20125;-76
2023/08/13 00:06:35;;;;;;;11.98;3.40;;;18.00;79.80;;;;;;4974348;28;20034;-76
2023/08/13 00:09:04;;;;;;;11.77;3.17;;;18.00;79.90;;;;;;4977282;28;20031;-75
2023/08/13 00:11:31;;;;;;;13.52;3.50;;;18.00;79.90;;;;;;4972835;28;20530;-75
2023/08/13 00:13:57;;;;;;;11.27;3.28;;;18.00;80.00;;;;;;4967600;28;20137;-75
2023/08/13 00:16:23;;;;;;;14.20;3.65;;;17.90;80.10;;;;;;4970000;28;20512;-74
2023/08/13 00:18:49;;;;;;;12.82;3.70;;;17.90;80.10;;;;;;4974308;28;20446;-75
2023/08/13 00:21:15;;;;;;;11.70;4.15;;;17.90;80.20;;;;;;4968560;28;20538;-79
2023/08/13 00:23:41;;;;;;;10.82;3.40;;;17.90;80.20;;;;;;4971516;28;20038;-75
2023/08/13 00:26:07;;;;;;;9.90;3.17;;;17.90;80.20;;;;;;4970891;28;20030;-74
2023/08/13 00:28:33;;;;;;;15.25;3.67;;;17.80;80.40;;;;;;4967965;28;20031;-74
2023/08/13 00:31:00;;;;;;;13.32;3.58;;;17.80;80.40;;;;;;4947142;28;20048;-75
2023/08/13 00:33:26;;;;;;;12.80;3.33;;;17.80;80.50;;;;;;4945811;28;20051;-74
2023/08/13 00:35:51;;;;;;;10.13;3.30;;;17.80;80.60;;;;;;4953811;28;20084;-76
2023/08/13 00:38:18;;;;;;;11.23;3.17;;;17.70;80.60;;;;;;4966585;28;20019;-76
2023/08/13 00:40:44;;;;;;;13.77;4.20;;;17.70;80.80;;;;;;4968856;28;20034;-76
2023/08/13 00:43:12;;;;;;;10.68;3.72;;;17.60;80.90;;;;;;4967035;28;20097;-76
2023/08/13 00:45:38;;;;;;;11.27;3.75;;;17.60;81.10;;;;;;4966141;28;20420;-76
2023/08/13 00:48:05;;;;;;;13.50;3.17;;;17.60;81.10;;;;;;4969130;28;20022;-75
2023/08/13 00:50:33;;;;;;;10.10;3.25;;;17.60;81.20;;;;;;4947824;28;20386;-75
2023/08/13 00:52:59;;;;;;;12.00;3.80;;;17.60;81.20;;;;;;4945859;28;20031;-76
2023/08/13 00:55:25;;;;;;;11.85;3.75;;;17.60;81.30;;;;;;4947188;28;20094;-76
2023/08/13 00:57:51;;;;;;;11.82;3.72;;;17.60;81.40;;;;;;4947176;28;20046;-76
2023/08/13 01:00:18;;;;;;;9.90;2.72;;;17.60;81.50;;;;;;4946254;28;20039;-77
2023/08/13 01:02:44;;;;;;;9.68;2.92;;;17.60;81.60;;;;;;4947680;28;20051;-76
2023/08/13 01:05:10;;;;;;;10.80;3.05;;;17.60;81.60;;;;;;4951039;28;20040;-75
2023/08/13 01:07:53;;;;;;;10.50;3.35;;;17.60;81.70;;;;;;4953923;28;20035;-75
2023/08/13 01:10:30;;;;;;;10.93;3.33;;;17.60;81.70;;;;;;4968183;28;20443;-77
2023/08/13 01:13:30;;;;;;;11.77;3.58;;;17.60;81.80;;;;;;4971542;28;20039;-75
2023/08/13 01:15:59;;;;;;;14.13;3.58;;;17.50;81.90;;;;;;4966030;28;20488;-76
2023/08/13 01:18:26;;;;;;;10.23;3.45;;;17.50;82.00;;;;;;4981080;28;20041;-77
2023/08/13 01:20:52;;;;;;;12.43;3.85;;;17.50;82.10;;;;;;4979419;28;20031;-76
2023/08/13 01:23:18;;;;;;;12.55;3.70;;;17.40;82.30;;;;;;4974198;28;20379;-78
2023/08/13 01:25:52;;;;;;;14.65;3.30;;;17.50;82.50;;;;;;4969251;28;20038;-76
2023/08/13 01:28:27;;;;;;;;;;;17.40;82.50;;;;;;4969553;28;20046;-75
2023/08/13 01:30:57;;;;;;;11.00;3.13;;;17.50;82.40;;;;;;4968795;28;20386;-76
2023/08/13 01:33:30;;;;;;;12.77;3.30;;;17.50;82.40;;;;;;4973379;28;20046;-75
2023/08/13 01:36:05;;;;;;;10.35;3.25;;;17.50;82.40;;;;;;4970591;28;20126;-75
2023/08/13 01:38:31;;;;;;;13.10;3.10;;;17.50;82.50;;;;;;4967891;28;20070;-74
2023/08/13 01:40:59;;;;;;;12.75;3.63;;;17.60;82.60;;;;;;4969186;28;20595;-75
2023/08/13 01:43:25;;;;;;;10.70;3.38;;;17.60;82.50;;;;;;4968554;28;20085;-75
2023/08/13 01:45:51;;;;;;;16.40;4.05;;;17.60;82.60;;;;;;4966119;28;20055;-75
2023/08/13 01:48:17;;;;;;;9.63;3.03;;;17.60;82.50;;;;;;4953343;28;20498;-75
2023/08/13 01:50:42;;;;;;;12.40;3.25;;;17.60;82.50;;;;;;4971087;28;20119;-75
2023/08/13 01:53:08;;;;;;;11.50;3.92;;;17.60;82.40;;;;;;4954268;28;20038;-75
2023/08/13 01:55:34;;;;;;;13.88;3.53;;;17.60;82.40;;;;;;4972897;28;20039;-75
2023/08/13 01:58:00;;;;;;;12.15;3.25;;;17.70;82.50;;;;;;4952229;28;20461;-75
2023/08/13 02:00:26;;;;;;;11.48;3.85;;;17.70;82.30;;;;;;4969507;28;20042;-75
2023/08/13 02:02:51;;;;;;;13.10;3.85;;;17.70;82.30;;;;;;4946670;28;20467;-75
2023/08/13 02:05:17;;;;;;;10.52;3.97;;;17.70;82.30;;;;;;4945995;28;20050;-75
2023/08/13 02:07:43;;;;;;;11.80;3.92;;;17.60;82.40;;;;;;4948087;28;20027;-78
2023/08/13 02:10:09;;;;;;;11.85;3.47;;;17.70;82.50;;;;;;4943197;28;20110;-75
2023/08/13 02:12:35;;;;;;;11.73;3.33;;;17.60;82.60;;;;;;4951014;28;20227;-75
2023/08/13 02:15:00;;;;;;;9.45;3.22;;;17.60;82.50;;;;;;4951535;28;20040;-75
2023/08/13 02:17:26;;;;;;;11.57;3.97;;;17.60;82.60;;;;;;4949326;28;20506;-75
2023/08/13 02:19:52;;;;;;;9.77;3.30;;;17.60;82.60;;;;;;4967799;28;20030;-76
2023/08/13 02:22:17;;;;;;;10.25;3.63;;;17.60;82.70;;;;;;4971239;28;20380;-75
2023/08/13 02:24:43;;;;;;;9.63;3.13;;;17.50;82.80;;;;;;4976197;28;20039;-75
2023/08/13 02:27:09;;;;;;;8.80;3.25;;;17.50;83.00;;;;;;4987208;28;20049;-76
2023/08/13 02:29:35;;;;;;;11.52;3.42;;;17.50;83.00;;;;;;4958876;28;20555;-75
2023/08/13 02:32:00;;;;;;;10.60;3.33;;;17.50;83.20;;;;;;4948636;28;20059;-76
2023/08/13 02:34:26;;;;;;;12.25;3.42;;;17.50;83.40;;;;;;4949630;28;20453;-76
2023/08/13 02:36:52;;;;;;;9.23;3.17;;;17.50;83.40;;;;;;4968902;28;20086;-75
2023/08/13 02:39:18;;;;;;;10.05;3.03;;;17.60;83.40;;;;;;4954134;28;20487;-75
2023/08/13 02:41:43;;;;;;;12.10;3.40;;;17.60;83.40;;;;;;4956237;28;20522;-75
2023/08/13 02:44:09;;;;;;;16.60;3.85;;;17.70;83.30;;;;;;4946182;28;20055;-75
2023/08/13 02:46:35;;;;;;;9.40;3.00;;;17.70;83.30;;;;;;4952938;28;20122;-75
2023/08/13 02:49:00;;;;;;;14.18;3.92;;;17.70;83.20;;;;;;4964699;28;20514;-77
2023/08/13 02:51:26;;;;;;;10.25;3.20;;;17.70;83.20;;;;;;4959371;28;20152;-75
2023/08/13 02:53:52;;;;;;;9.27;3.13;;;17.70;83.10;;;;;;4961681;28;20538;-75
2023/08/13 02:56:21;;;;;;;12.95;3.33;;;17.80;83.20;;;;;;4970251;28;20046;-77
2023/08/13 02:58:46;;;;;;;9.57;3.47;;;17.80;83.10;;;;;;4958120;28;20030;-75
2023/08/13 03:01:12;;;;;;;12.52;3.70;;;17.80;83.10;;;;;;4964279;28;20036;-75
2023/08/13 03:03:38;;;;;;;11.88;3.72;;;17.90;83.00;;;;;;4956465;28;20047;-77
2023/08/13 03:06:03;;;;;;;10.77;3.55;;;18.00;83.00;;;;;;4963330;28;20071;-75
2023/08/13 03:08:29;;;;;;;13.15;3.85;;;17.90;82.90;;;;;;4972424;28;20097;-76
2023/08/13 03:10:55;;;;;;;13.02;3.53;;;17.90;82.80;;;;;;4966891;28;20035;-75
2023/08/13 03:13:21;;;;;;;16.38;3.80;;;17.90;82.80;;;;;;4954973;28;20051;-75
2023/08/13 03:15:46;;;;;;;14.80;4.38;;;17.90;82.70;;;;;;4955193;28;20043;-75
2023/08/13 03:18:12;;;;;;;11.98;3.83;;;18.00;82.80;;;;;;4954308;28;20035;-76
2023/08/13 03:20:38;;;;;;;14.30;5.00;;;17.90;82.70;;;;;;4966249;28;20035;-75
2023/08/13 03:23:05;;;;;;;15.25;5.25;;;17.90;82.60;;;;;;4947678;28;20023;-75
2023/08/13 03:25:31;;;;;;;13.07;5.43;;;18.00;82.70;;;;;;4946927;28;20035;-75
2023/08/13 03:27:57;;;;;;;16.13;5.10;;;18.00;82.60;;;;;;4945897;28;20039;-77
2023/08/13 03:30:22;;;;;;;15.77;5.32;;;18.00;82.60;;;;;;4946211;28;20036;-75
2023/08/13 03:32:48;;;;;;;15.95;5.75;;;17.90;82.60;;;;;;4946398;28;20154;-75
2023/08/13 03:35:14;;;;;;;14.32;5.43;;;18.00;82.70;;;;;;4941615;28;20058;-75
2023/08/13 03:37:39;;;;;;;12.40;5.53;;;17.90;82.80;;;;;;4944985;29;20482;-75
2023/08/13 03:40:06;;;;;;;11.95;5.10;;;17.90;82.70;;;;;;4943865;28;20506;-77
2023/08/13 03:42:32;;;;;;;16.10;5.35;;;17.80;82.80;;;;;;4962069;28;20548;-75
2023/08/13 03:44:58;;;;;;;12.52;4.57;;;17.90;82.90;;;;;;4972078;28;20496;-74
2023/08/13 03:47:24;;;;;;;13.48;4.43;;;17.90;83.10;;;;;;4956161;28;20034;-75
2023/08/13 03:49:49;;;;;;;12.85;4.55;;;17.80;83.00;;;;;;4948782;28;20050;-76
2023/08/13 03:52:15;;;;;;;13.68;4.85;;;17.80;83.00;;;;;;4970757;28;20023;-78
2023/08/13 03:54:41;;;;;;;12.95;4.25;;;17.80;83.00;;;;;;4970982;28;20047;-75
2023/08/13 03:57:06;;;;;;;12.82;4.47;;;17.80;83.10;;;;;;4957948;28;20464;-75
2023/08/13 03:59:32;;;;;;;13.25;4.50;;;17.80;83.10;;;;;;4953171;28;20038;-75
2023/08/13 04:01:58;;;;;;;12.48;3.72;;;17.70;83.10;;;;;;4952170;28;20042;-81
2023/08/13 04:04:24;;;;;;;13.07;4.53;;;17.80;83.10;;;;;;4973934;28;20037;-82
2023/08/13 04:06:50;;;;;;;11.48;4.07;;;17.80;83.00;;;;;;4956928;28;20464;-82
2023/08/13 04:09:16;;;;;;;11.55;3.88;;;17.70;83.00;;;;;;4971879;28;20031;-82
2023/08/13 04:11:42;;;;;;;16.65;4.93;;;17.70;83.10;;;;;;4963263;28;20039;-82
2023/08/13 04:14:07;;;;;;;14.85;5.18;;;17.70;83.10;;;;;;4965538;28;20047;-80
2023/08/13 04:16:33;;;;;;;13.57;4.53;;;17.70;83.10;;;;;;4964986;28;20043;-82
2023/08/13 04:18:59;;;;;;;13.98;5.15;;;17.70;83.10;;;;;;4965092;28;20109;-82
2023/08/13 04:21:27;;;;;;;14.20;5.32;;;17.70;83.20;;;;;;4968942;28;20039;-82
2023/08/13 04:23:56;;;;;;;14.13;5.97;;;17.70;83.10;;;;;;4969467;28;20412;-82
2023/08/13 04:26:23;;;;;;;15.20;5.68;;;17.80;83.20;;;;;;4972331;28;20380;-79
2023/08/13 04:28:49;;;;;;;15.98;6.18;;;17.80;83.20;;;;;;4968458;28;20046;-82
2023/08/13 04:31:20;;;;;;;16.95;5.35;;;17.80;82.90;;;;;;4956832;28;20051;-83
2023/08/13 04:33:48;;;;;;;10.50;4.25;;;17.90;82.70;;;;;;4956422;28;20472;-79
2023/08/13 04:36:14;;;;;;;15.90;5.53;;;17.90;82.70;;;;;;4977122;28;20031;-81
2023/08/13 04:38:40;;;;;;;14.02;4.53;;;17.90;82.70;;;;;;4969847;28;20046;-83
2023/08/13 04:41:06;;;;;;;14.63;4.22;;;17.90;82.40;;;;;;4968951;28;20435;-82
2023/08/13 04:43:31;;;;;;;16.05;4.25;;;17.80;82.40;;;;;;4967324;28;20050;-83
2023/08/13 04:45:57;;;;;;;15.77;4.10;;;17.90;82.20;;;;;;4966324;28;20043;-81
2023/08/13 04:48:46;;;;;;;13.98;4.05;;;17.90;82.20;;;;;;4956089;28;20046;-80
2023/08/13 04:51:13;;;;;;;13.52;3.47;;;17.90;82.00;;;;;;4969288;28;20046;-80
2023/08/13 04:53:39;;;;;;;14.02;4.60;;;17.90;82.00;;;;;;4963137;28;20525;-83
2023/08/13 04:56:08;;;;;;;13.75;4.28;;;17.90;82.00;;;;;;4953366;28;20034;-82
2023/08/13 04:58:35;;;;;;;12.40;4.32;;;17.90;82.10;;;;;;4967330;28;20054;-81
2023/08/13 05:01:01;;;;;;;13.48;3.60;;;17.90;81.90;;;;;;4971493;28;20090;-84
2023/08/13 05:03:27;;;;;;;12.32;3.78;;;18.00;82.00;;;;;;4963147;28;20047;-83
2023/08/13 05:05:53;;;;;;;14.25;4.03;;;18.00;82.00;;;;;;4964097;28;20480;-81
2023/08/13 05:08:18;;;;;;;14.90;4.45;;;18.00;82.00;;;;;;4961864;28;20361;-83
2023/08/13 05:10:45;;;;;;;15.85;4.32;;;18.00;82.00;;;;;;4947971;28;20039;-83
2023/08/13 05:13:12;;;;;;;11.52;3.60;;;18.00;81.90;;;;;;4944303;28;20034;-81
2023/08/13 05:15:38;;;;;;;10.98;3.83;;;18.00;82.00;;;;;;4943828;28;20452;-81
2023/08/13 05:18:03;;;;;;;12.75;4.05;;;18.00;81.90;;;;;;4948487;28;20035;-82
2023/08/13 05:20:29;;;;;;;12.00;4.10;;;18.00;81.90;;;;;;4956837;28;20015;-82
2023/08/13 05:22:55;;;;;;;13.43;4.10;;;18.00;82.00;;;;;;4968180;28;20031;-83
2023/08/13 05:25:20;;;;;;;12.70;3.97;;;18.10;82.00;;;;;;4966827;28;20412;-83
2023/08/13 05:27:46;;;;;;;11.20;3.85;;;18.10;81.70;;;;;;4965208;28;20515;-83
2023/08/13 05:30:12;;;;;;;12.27;4.72;;;18.10;81.80;;;;;;4966572;28;20547;-81
2023/08/13 05:32:37;;;;;;;13.48;4.32;;;18.10;81.50;;;;;;4947649;28;20078;-81
2023/08/13 05:35:03;;;;;;;12.55;4.88;;;18.20;81.40;;;;;;4948279;28;20499;-83
2023/08/13 05:37:29;;;;;;;10.23;3.22;;;18.20;81.20;;;;;;4948159;28;20577;-83
2023/08/13 05:39:55;;;;;;;13.70;3.80;;;18.20;81.00;;;;;;4947595;28;20039;-82
2023/08/13 05:42:20;;;;;;;12.65;3.85;;;18.20;81.00;;;;;;4948824;28;20055;-83
2023/08/13 05:44:46;;;;;;;14.45;4.07;;;18.20;81.00;;;;;;4959226;28;20181;-83
2023/08/13 05:47:12;;;;;;;14.30;3.85;;;18.20;81.00;;;;;;4950229;28;20032;-80
2023/08/13 05:49:37;;;;;;;12.27;3.47;;;18.20;81.00;;;;;;4950936;28;20472;-83
2023/08/13 05:52:03;;;;;;;14.88;3.95;;;18.20;80.90;;;;;;4942977;28;20042;-82
2023/08/13 05:54:29;;;;;;;15.55;3.58;;;18.20;80.90;;;;;;4959116;28;20043;-82
2023/08/13 05:56:55;;;;;;;14.88;3.67;;;18.20;81.00;;;;;;4969158;28;20042;-78
2023/08/13 05:59:20;;;;;;;15.30;4.20;;;18.30;81.00;;;;;;4968354;28;20035;-82
2023/08/13 06:01:46;;;;;;;11.93;3.55;;;18.40;80.90;;;;;;4958191;28;20035;-80
2023/08/13 06:04:12;;;;;;;12.52;3.97;;;18.30;80.50;;;;;;4958806;28;20367;-79
2023/08/13 06:06:37;;;;;;;11.48;4.30;;;18.40;80.40;;;;;;4954957;28;20039;-78
2023/08/13 06:09:03;;;;;;;10.15;3.28;;;18.40;80.60;;;;;;4965684;28;20031;-78
2023/08/13 06:11:29;;;;;;;11.85;3.80;;;18.40;80.70;;;;;;4967970;28;20043;-82
2023/08/13 06:13:55;;;;;;;12.57;3.65;;;18.50;80.60;;;;;;4964614;28;20039;-83
2023/08/13 06:16:20;;;;;;;11.02;3.83;;;18.60;80.30;;;;;;4966023;28;20045;-82
2023/08/13 06:18:46;;;;;;;11.32;3.65;;;18.60;80.00;;;;;;4987521;28;20042;-76
2023/08/13 06:21:12;;;;;;;14.70;3.97;;;18.50;79.60;;;;;;4987951;28;20035;-80
2023/08/13 06:23:38;;;;;;;13.18;5.10;;;18.50;79.70;;;;;;4994916;28;20039;-79
2023/08/13 06:26:04;;;;;;;12.65;4.05;;;18.60;79.80;;;;;;4973615;28;20038;-79
2023/08/13 06:28:30;;;;;;;16.10;4.13;;;18.60;79.60;;;;;;4977593;28;20030;-78
2023/08/13 06:30:56;;;;;;;12.73;4.50;;;18.60;79.70;;;;;;4983852;28;20034;-83
2023/08/13 06:33:21;;;;;;;15.48;4.13;;;18.70;79.40;;;;;;4977325;28;20038;-79
2023/08/13 06:35:47;;;;;;;16.40;4.53;;;18.70;79.30;;;;;;4975186;28;20046;-83
2023/08/13 06:38:17;;;;;;;16.38;4.63;;;18.80;78.90;;;;;;4963826;28;20035;-80
2023/08/13 06:40:43;;;;;;;11.77;3.72;;;18.80;78.70;;;;;;4955723;28;20246;-80
2023/08/13 06:43:10;;;;;;;10.23;3.35;;;18.80;78.60;;;;;;4974644;28;20478;-81
2023/08/13 06:45:35;;;;;;;14.05;3.92;;;18.90;78.70;;;;;;4973582;28;20131;-83
2023/08/13 06:48:04;;;;;;;9.95;3.65;;;19.00;78.30;;;;;;4974651;28;20027;-80
2023/08/13 06:50:30;;;;;;;11.40;3.85;;;19.10;78.30;;;;;;4944355;28;20571;-82
2023/08/13 06:52:56;;;;;;;10.70;3.72;;;19.10;78.20;;;;;;4948048;29;20023;-82
2023/08/13 06:55:22;;;;;;;13.95;4.13;;;19.20;77.80;;;;;;4947009;28;20098;-80
2023/08/13 06:57:48;;;;;;;11.38;3.75;;;19.30;77.50;;;;;;4954006;28;20167;-83
2023/08/13 07:00:15;;;;;;;16.77;4.13;;;19.30;77.20;;;;;;4952683;28;20118;-82
2023/08/13 07:02:41;;;;;;;13.73;4.15;;;19.20;76.90;;;;;;4965407;28;20038;-84
2023/08/13 07:05:09;;;;;;;12.40;4.03;;;19.30;76.90;;;;;;4964852;28;20023;-84
2023/08/13 07:07:35;;;;;;;11.15;3.80;;;19.40;77.00;;;;;;4972727;28;20364;-84
2023/08/13 07:10:01;;;;;;;12.27;4.50;;;19.50;76.50;;;;;;4968471;28;20027;-80
2023/08/13 07:12:26;;;;;;;12.00;4.03;;;19.60;76.30;;;;;;4969307;28;20413;-82
2023/08/13 07:14:52;;;;;;;12.20;4.40;;;19.70;75.90;;;;;;4971410;28;20133;-83
2023/08/13 07:17:18;;;;;;;10.88;3.95;;;19.80;75.80;;;;;;4951959;28;20183;-83
2023/08/13 07:19:43;;;;;;;12.60;4.25;;;19.90;75.70;;;;;;4950287;28;20392;-84
2023/08/13 07:22:09;;;;;;;10.15;3.50;;;20.10;75.60;;;;;;4950031;28;20091;-83
2023/08/13 07:24:35;;;;;;;12.65;3.88;;;20.30;75.30;;;;;;4964304;28;20474;-82
2023/08/13 07:27:00;;;;;;;11.63;4.25;;;20.40;75.70;;;;;;4968628;28;20031;-83
2023/08/13 07:29:26;;;;;;;11.98;3.83;;;20.50;74.40;;;;;;4969428;28;20051;-82
2023/08/13 07:31:52;;;;;;;11.85;3.65;;;20.60;74.00;;;;;;4954728;28;20384;-81
2023/08/13 07:34:17;;;;;;;11.63;3.72;;;20.70;74.00;;;;;;4951211;28;20123;-82
2023/08/13 07:36:43;;;;;;;11.25;3.90;;;20.80;73.30;;;;;;4953998;28;20038;-81
2023/08/13 07:39:12;;;;;;;12.80;3.90;;;20.90;73.50;;;;;;4965654;28;20035;-84
2023/08/13 07:41:37;;;;;;;11.02;3.70;;;20.90;72.60;;;;;;4954319;28;20039;-83
2023/08/13 07:44:05;;;;;;;12.73;3.75;;;20.80;73.00;;;;;;4958141;28;20965;-83
2023/08/13 07:46:30;;;;;;;14.48;4.18;;;20.90;73.40;;;;;;4959554;28;20035;-83
2023/08/13 07:48:56;;;;;;;12.52;4.13;;;20.90;72.80;;;;;;4947002;28;20075;-84
2023/08/13 07:51:22;;;;;;;13.30;3.90;;;20.90;73.00;;;;;;4951461;28;20134;-82
2023/08/13 07:53:48;;;;;;;11.75;3.67;;;20.90;72.90;;;;;;4951577;28;20085;-83
2023/08/13 07:56:14;;;;;;;12.77;3.55;;;20.90;73.00;;;;;;4956807;28;20055;-82
2023/08/13 07:58:39;;;;;;;12.50;3.97;;;21.00;73.30;;;;;;4961786;28;20042;-83
2023/08/13 08:01:05;;;;;;;11.02;4.05;;;21.10;72.10;;;;;;4948961;28;20027;-82
2023/08/13 08:03:31;;;;;;;10.82;4.10;;;21.20;72.30;;;;;;4952732;28;20351;-84
2023/08/13 08:05:56;;;;;;;10.70;3.63;;;21.30;72.20;;;;;;4974642;28;20089;-83
2023/08/13 08:08:22;;;;;;;11.27;4.22;;;21.40;72.00;;;;;;4967979;28;20027;-84
2023/08/13 08:10:48;;;;;;;11.95;4.20;;;21.30;71.80;;;;;;4947246;28;20035;-83
2023/08/13 08:13:14;;;;;;;14.43;4.10;;;21.40;72.40;;;;;;4951525;28;20468;-82
2023/08/13 08:15:39;;;;;;;13.80;3.78;;;21.40;71.50;;;;;;4958057;28;20030;-84
2023/08/13 08:18:05;;;;;;;15.05;4.43;;;21.30;71.90;;;;;;4950520;28;20035;-75
2023/08/13 08:20:31;;;;;;;10.95;3.70;;;21.20;72.00;;;;;;4953837;28;20035;-76
2023/08/13 08:22:56;;;;;;;11.52;3.78;;;21.40;72.00;;;;;;4950686;28;20106;-74
2023/08/13 08:25:22;;;;;;;13.15;3.45;;;21.70;72.00;;;;;;4947483;28;20039;-76
2023/08/13 08:27:48;;;;;;;12.27;3.85;;;21.90;70.90;;;;;;4945865;28;20093;-75
2023/08/13 08:30:13;;;;;;;11.25;3.60;;;22.00;70.30;;;;;;4968080;28;20066;-75
2023/08/13 08:32:39;;;;;;;11.38;4.40;;;22.10;69.80;;;;;;4972642;28;20591;-76
2023/08/13 08:35:05;;;;;;;10.23;2.83;;;22.20;70.20;;;;;;4951745;28;20043;-75
2023/08/13 08:37:32;;;;;;;9.73;3.13;;;22.30;70.30;;;;;;4967151;28;20421;-76
2023/08/13 08:39:59;;;;;;;10.30;3.75;;;22.30;69.00;;;;;;4949740;28;20039;-73
2023/08/13 08:42:26;;;;;;;14.70;4.22;;;22.40;69.60;;;;;;4941906;28;20058;-75
2023/08/13 08:44:52;;;;;;;12.15;3.35;;;22.50;69.50;;;;;;4943280;28;20518;-74
2023/08/13 08:47:20;;;;;;;10.00;3.03;;;22.60;70.00;;;;;;4949807;28;20076;-73
2023/08/13 08:49:48;;;;;;;12.93;3.28;;;22.70;68.00;;;;;;4947489;28;20043;-73
2023/08/13 08:52:16;;;;;;;14.32;4.07;;;22.60;68.30;;;;;;4955296;28;20050;-74
2023/08/13 08:54:43;;;;;;;11.38;3.10;;;22.90;69.10;;;;;;4951199;28;20520;-74
2023/08/13 08:57:09;;;;;;;14.70;3.00;;;23.20;67.30;;;;;;4964592;28;20484;-76
2023/08/13 08:59:35;;;;;;;11.15;3.83;;;23.40;67.00;;;;;;4965636;28;20045;-76
2023/08/13 09:02:03;;;;;;;12.13;3.22;;;23.50;65.90;;;;;;4955684;28;20358;-75
2023/08/13 09:04:28;;;;;;;10.57;2.78;;;23.80;65.20;;;;;;4962406;28;20081;-75
2023/08/13 09:07:00;;;;;;;12.13;3.13;;;23.80;64.90;;;;;;4967794;28;20672;-76
2023/08/13 09:09:27;;;;;;;11.45;2.65;;;23.80;64.10;;;;;;4954175;28;20408;-76
2023/08/13 09:11:54;;;;;;;12.88;3.10;;;23.90;64.40;;;;;;4945990;28;20063;-76
2023/08/13 09:14:21;;;;;;;9.50;3.50;;;23.90;64.30;;;;;;4946665;28;20059;-76
2023/08/13 09:16:52;;;;;;;11.23;3.45;;;24.00;64.60;;;;;;4949003;28;20376;-76
2023/08/13 09:19:19;;;;;;;12.05;3.17;;;24.10;65.10;;;;;;4946441;28;20156;-75
2023/08/13 09:21:51;;;;;;;11.73;3.08;;;24.40;64.00;;;;;;4951700;28;20035;-76
2023/08/13 09:24:17;;;;;;;13.32;3.13;;;24.80;62.80;;;;;;4958974;28;20245;-76
2023/08/13 09:26:44;;;;;;;12.77;3.20;;;24.80;62.10;;;;;;4969024;28;20097;-75
2023/08/13 09:29:10;;;;;;;11.38;3.30;;;25.20;61.80;;;;;;4971569;28;20125;-75
2023/08/13 09:31:36;;;;;;;12.90;3.33;;;25.10;60.70;;;;;;4969124;28;20151;-75
2023/08/13 09:34:02;;;;;;;10.48;3.28;;;24.70;61.60;;;;;;4966143;28;20054;-75
2023/08/13 09:36:29;;;;;;;11.85;2.85;;;24.60;61.10;;;;;;4970854;28;20035;-75
2023/08/13 09:38:56;;;;;;;12.88;3.45;;;24.80;62.70;;;;;;4969531;28;20045;-76
2023/08/13 09:41:22;;;;;;;8.77;3.13;;;25.10;60.80;;;;;;4967398;28;20415;-75
2023/08/13 09:43:50;;;;;;;11.35;3.53;;;25.00;61.20;;;;;;4961923;28;20078;-75
2023/08/13 09:46:20;;;;;;;12.57;3.15;;;24.80;61.50;;;;;;4974927;28;20035;-73
2023/08/13 09:48:52;;;;;;;12.70;3.30;;;25.00;61.50;;;;;;4949553;28;20175;-73
2023/08/13 09:51:21;;;;;;;12.23;3.88;;;25.30;60.40;;;;;;4954653;28;20369;-73
2023/08/13 09:53:52;;;;;;;12.48;3.10;;;25.30;59.60;;;;;;4968238;28;20038;-73
2023/08/13 09:56:20;;;;;;;11.07;3.35;;;25.30;60.20;;;;;;4967456;28;20066;-73
2023/08/13 09:58:46;;;;;;;10.40;3.00;;;25.20;60.50;;;;;;4967792;28;20031;-74
2023/08/13 10:01:13;;;;;;;10.20;3.63;;;25.20;60.50;;;;;;4966283;28;20114;-73
2023/08/13 10:03:39;;;;;;;10.68;3.00;;;25.30;60.40;;;;;;4968407;28;20046;-74
2023/08/13 10:06:06;;;;;;;9.55;3.10;;;25.00;59.20;;;;;;4966593;28;20039;-74
2023/08/13 10:08:33;;;;;;;10.10;2.97;;;24.80;60.50;;;;;;4952900;28;20034;-75
2023/08/13 10:10:59;;;;;;;10.50;3.08;;;24.60;60.20;;;;;;4965010;28;20113;-74
2023/08/13 10:13:25;;;;;;;11.32;2.90;;;24.50;61.70;;;;;;4953281;28;20047;-73
2023/08/13 10:15:51;;;;;;;13.07;3.30;;;24.20;61.60;;;;;;4948693;28;21240;-74
2023/08/13 10:18:17;;;;;;;12.23;3.38;;;24.10;62.20;;;;;;4955103;28;20023;-73
2023/08/13 10:20:46;;;;;;;13.65;3.20;;;24.00;62.40;;;;;;4965120;28;20038;-73
2023/08/13 10:23:12;;;;;;;10.18;2.90;;;23.70;62.60;;;;;;4963260;28;20470;-74
2023/08/13 10:25:39;;;;;;;10.43;2.88;;;23.60;62.90;;;;;;4939094;28;20047;-74
2023/08/13 10:28:30;;;;;;;11.73;2.78;;;23.50;63.30;;;;;;4937808;28;20307;-73
2023/08/13 10:31:35;;;;;;;14.45;3.22;;;23.50;63.90;;;;;;4940960;28;20035;-74
2023/08/13 10:34:11;;;;;;;11.90;3.03;;;23.50;63.80;;;;;;4943980;28;20602;-73
2023/08/13 10:36:54;;;;;;;11.82;3.50;;;23.50;64.60;;;;;;4940504;28;20118;-75
2023/08/13 10:39:37;;;;;;;11.65;3.63;;;23.60;64.00;;;;;;4965244;28;20536;-72
2023/08/13 10:42:04;;;;;;;11.82;3.55;;;23.90;64.50;;;;;;4964449;28;20559;-75
2023/08/13 10:44:32;;;;;;;13.20;3.50;;;24.50;62.80;;;;;;4960821;28;20050;-76
2023/08/13 10:46:59;;;;;;;11.60;3.80;;;25.20;61.50;;;;;;4964403;28;20062;-77
2023/08/13 10:49:26;;;;;;;9.35;2.60;;;25.50;58.60;;;;;;4963361;28;20043;-77
2023/08/13 10:51:52;;;;;;;3.05;1.45;;;25.60;57.90;;;;;;4968635;28;20038;-75
2023/08/13 10:54:18;;;;;;;5.57;1.92;;;25.00;60.70;;;;;;4980169;28;20175;-74
2023/08/13 10:56:52;;;;;;;4.20;1.60;;;24.30;63.20;;;;;;4981768;28;20054;-74
2023/08/13 10:59:18;;;;;;;5.75;1.70;;;23.60;65.60;;;;;;4958198;28;20043;-75
2023/08/13 11:02:09;;;;;;;5.55;1.90;;;23.30;67.20;;;;;;4952267;28;20047;-75
2023/08/13 11:04:36;;;;;;;5.93;1.70;;;22.80;68.30;;;;;;4953597;28;20416;-75
2023/08/13 11:07:02;;;;;;;3.85;1.70;;;22.70;68.40;;;;;;4959893;28;20041;-74
2023/08/13 11:09:30;;;;;;;5.28;1.80;;;22.40;69.40;;;;;;4963424;28;20492;-73
2023/08/13 11:11:56;;;;;;;3.75;1.33;;;22.20;70.20;;;;;;4955101;28;20031;-74
2023/08/13 11:14:22;;;;;;;6.50;1.52;;;22.10;70.50;;;;;;4959745;28;20058;-74
2023/08/13 11:16:48;;;;;;;7.00;1.67;;;22.30;70.60;;;;;;4966390;28;20093;-74
2023/08/13 11:19:14;;;;;;;4.00;1.70;;;22.10;71.00;;;;;;4969207;28;20419;-73
2023/08/13 11:21:40;;;;;;;4.70;2.05;;;22.10;71.30;;;;;;4964934;28;20038;-74
2023/08/13 11:24:10;;;;;;;4.45;1.65;;;22.30;71.40;;;;;;4964715;28;20050;-73
2023/08/13 11:26:37;;;;;;;7.10;2.10;;;22.50;71.10;;;;;;4961549;28;20043;-73
2023/08/13 11:29:02;;;;;;;7.88;2.35;;;22.60;70.20;;;;;;4972627;28;20050;-75
2023/08/13 11:31:28;;;;;;;6.30;2.10;;;22.80;70.30;;;;;;4969917;28;20101;-75
2023/08/13 11:33:54;;;;;;;6.50;2.35;;;22.80;69.60;;;;;;4956166;28;20062;-75
2023/08/13 11:36:20;;;;;;;7.40;2.50;;;23.00;69.20;;;;;;4954015;28;20053;-74
2023/08/13 11:38:49;;;;;;;5.45;2.90;;;23.30;68.60;;;;;;4961389;28;20038;-73
2023/08/13 11:41:15;;;;;;;7.63;3.10;;;23.30;68.50;;;;;;4953138;28;20051;-75
2023/08/13 11:43:42;;;;;;;10.18;3.17;;;23.40;68.50;;;;;;4956456;28;20057;-75
2023/08/13 11:46:08;;;;;;;9.88;3.10;;;23.50;67.90;;;;;;4953271;28;20058;-74
2023/08/13 11:48:37;;;;;;;7.80;3.50;;;23.70;68.00;;;;;;4945901;28;20043;-74
2023/08/13 11:51:14;;;;;;;11.27;4.10;;;23.80;67.40;;;;;;4952741;28;20460;-75
2023/08/13 11:53:42;;;;;;;9.77;3.90;;;23.90;67.00;;;;;;4973671;28;20065;-74
2023/08/13 11:56:09;;;;;;;8.85;3.35;;;23.60;67.40;;;;;;4962012;28;20039;-75
2023/08/13 11:58:36;;;;;;;13.02;3.42;;;23.40;67.90;;;;;;4943335;28;20365;-74
2023/08/13 12:01:03;;;;;;;13.00;3.55;;;23.50;68.30;;;;;;4943635;28;20488;-75
2023/08/13 12:03:36;;;;;;;8.93;3.22;;;23.70;67.30;;;;;;4944231;29;20054;-75
2023/08/13 12:06:02;;;;;;;7.05;2.60;;;23.90;66.40;;;;;;4938086;28;20383;-74
2023/08/13 12:08:28;;;;;;;8.95;2.92;;;24.10;65.50;;;;;;4947637;28;20428;-74
2023/08/13 12:10:55;;;;;;;11.32;2.95;;;24.50;64.80;;;;;;4940857;28;20035;-74
2023/08/13 12:13:21;;;;;;;9.60;3.47;;;24.70;64.40;;;;;;4942988;28;20090;-74
2023/08/13 12:15:47;;;;;;;8.90;2.72;;;24.90;62.00;;;;;;4942118;28;20043;-74
2023/08/13 12:18:12;;;;;;;8.73;2.95;;;24.90;62.90;;;;;;4945293;28;20031;-75
2023/08/13 12:20:38;;;;;;;7.40;2.90;;;24.90;62.20;;;;;;4959604;28;20039;-76
2023/08/13 12:23:04;;;;;;;9.50;3.15;;;24.90;63.20;;;;;;4937839;29;20102;-75
2023/08/13 12:25:30;;;;;;;8.13;2.45;;;24.80;63.00;;;;;;4946898;28;20066;-75
2023/08/13 12:27:55;;;;;;;7.28;2.15;;;24.70;62.80;;;;;;4943849;29;20035;-75
2023/08/13 12:30:24;;;;;;;8.15;2.33;;;24.50;63.50;;;;;;4943483;28;20066;-75
2023/08/13 12:32:50;;;;;;;8.38;2.55;;;24.10;65.10;;;;;;4946485;29;20038;-75
2023/08/13 12:35:16;;;;;;;7.55;2.60;;;23.90;65.30;;;;;;4946122;28;20027;-75
2023/08/13 12:37:42;;;;;;;6.93;2.33;;;23.80;65.50;;;;;;4947392;28;20027;-75